Time;durP1;ratioP1;P1;durP2;ratioP2;P2;SDS_P1;SDS_P2;PMS_P1;PMS_P2;Temp;Humidity;BMP_temperature;BMP_pressure;BME280_temperature;BME280_humidity;BME280_pressure;Samples;Min_cycle;Max_cycle;Signal;HPM_P1;HPM_P2
2022/05/15 00:01:37;;;;;;;19.77;4.75;;;;;;;14.05;71.33;102214.00;5006954;28;20253;-77
2022/05/15 00:04:02;;;;;;;17.23;4.50;;;;;;;14.06;71.75;102214.84;5031831;28;20367;-77
2022/05/15 00:06:28;;;;;;;16.75;4.88;;;;;;;13.99;72.20;102212.44;5020179;28;20064;-77
2022/05/15 00:08:53;;;;;;;23.52;6.30;;;;;;;13.95;72.44;102204.69;5020275;28;20111;-77
2022/05/15 00:11:18;;;;;;;22.63;5.35;;;;;;;13.88;72.63;102204.03;5020676;28;20034;-77
2022/05/15 00:13:46;;;;;;;19.98;5.47;;;;;;;13.83;72.98;102203.31;5019065;28;20041;-77
2022/05/15 00:16:11;;;;;;;16.77;4.95;;;;;;;13.82;73.05;102194.56;5019943;28;20030;-77
2022/05/15 00:18:38;;;;;;;18.55;4.85;;;;;;;13.78;73.44;102185.03;5020190;28;20230;-77
2022/05/15 00:21:04;;;;;;;19.92;5.40;;;;;;;13.73;73.90;102183.47;5018795;28;20049;-77
2022/05/15 00:23:30;;;;;;;18.35;5.10;;;;;;;13.69;73.77;102182.69;5019484;28;20113;-77
2022/05/15 00:25:56;;;;;;;17.13;4.97;;;;;;;13.65;74.12;102180.22;5019461;28;20038;-77
2022/05/15 00:28:21;;;;;;;23.20;5.63;;;;;;;13.61;74.16;102182.94;5016307;28;20061;-77
2022/05/15 00:30:46;;;;;;;17.73;5.22;;;;;;;13.62;74.27;102179.41;5018337;28;20056;-77
2022/05/15 00:33:12;;;;;;;18.45;5.22;;;;;;;13.62;74.28;102182.06;5020113;28;20391;-77
2022/05/15 00:35:38;;;;;;;18.50;5.15;;;;;;;13.64;74.03;102187.25;5034044;28;20041;-77
2022/05/15 00:38:05;;;;;;;18.80;5.18;;;;;;;13.63;74.25;102185.53;5019648;28;20041;-77
2022/05/15 00:40:32;;;;;;;22.42;5.43;;;;;;;13.61;73.94;102180.31;5019511;28;20057;-77
2022/05/15 00:42:57;;;;;;;20.25;4.90;;;;;;;13.60;74.46;102175.09;5017999;28;20035;-77
2022/05/15 00:45:24;;;;;;;19.08;4.80;;;;;;;13.57;74.46;102177.81;5019563;28;20125;-77
2022/05/15 00:47:49;;;;;;;21.25;5.25;;;;;;;13.55;74.76;102187.53;5019327;28;20033;-77
2022/05/15 00:50:19;;;;;;;18.13;5.13;;;;;;;13.55;74.65;102183.16;5019769;28;20038;-77
2022/05/15 00:52:49;;;;;;;12.13;4.28;;;;;;;13.57;74.16;102188.34;5019233;28;20060;-77
2022/05/15 00:55:49;;;;;;;15.35;4.85;;;;;;;13.55;74.35;102191.06;5014675;28;20038;-77
2022/05/15 00:58:25;;;;;;;11.40;4.40;;;;;;;13.56;74.09;102184.84;4991617;28;20092;-77
2022/05/15 01:04:12;;;;;;;16.02;4.45;;;;;;;13.62;73.79;102181.16;4979476;28;20306;-77
2022/05/15 01:06:40;;;;;;;20.42;5.72;;;;;;;13.63;73.84;102177.63;5018849;28;20285;-77
2022/05/15 01:09:06;;;;;;;23.00;5.22;;;;;;;13.62;73.96;102178.53;5019235;28;20257;-77
2022/05/15 01:11:33;;;;;;;16.83;4.80;;;;;;;13.62;73.62;102182.06;5018721;28;20101;-77
2022/05/15 01:13:59;;;;;;;15.77;5.55;;;;;;;13.60;73.89;102180.38;5029503;28;20076;-77
2022/05/15 01:16:26;;;;;;;13.93;4.93;;;;;;;13.60;73.62;102183.84;5018842;28;20029;-77
2022/05/15 01:18:57;;;;;;;18.65;4.57;;;;;;;13.61;73.59;102182.09;5018381;28;20055;-77
2022/05/15 01:21:30;;;;;;;20.77;5.00;;;;;;;13.62;73.45;102183.81;5018511;28;20065;-77
2022/05/15 01:23:56;;;;;;;14.85;4.45;;;;;;;13.62;73.42;102184.69;5018850;28;20225;-77
2022/05/15 01:26:24;;;;;;;14.70;4.55;;;;;;;13.59;73.46;102182.13;5018418;28;20034;-77
2022/05/15 01:28:49;;;;;;;25.02;5.25;;;;;;;13.52;73.51;102177.97;5017264;28;20042;-77
2022/05/15 01:31:16;;;;;;;17.10;5.47;;;;;;;13.46;74.11;102172.88;5018072;28;20033;-76
2022/05/15 01:33:45;;;;;;;20.20;5.35;;;;;;;13.41;74.08;102170.41;5031308;28;20057;-77
2022/05/15 01:36:11;;;;;;;19.58;5.70;;;;;;;13.39;74.15;102169.63;5018197;28;20046;-77
2022/05/15 01:38:37;;;;;;;22.25;5.57;;;;;;;13.33;74.33;102163.66;5018400;28;20273;-77
2022/05/15 01:41:03;;;;;;;13.55;4.60;;;;;;;13.33;74.27;102171.56;4986830;28;20030;-77
2022/05/15 01:43:28;;;;;;;11.45;4.38;;;;;;;13.33;74.31;102169.78;5017258;28;20093;-77
2022/05/15 01:45:54;;;;;;;9.80;4.00;;;;;;;13.35;74.31;102173.25;5037247;28;20048;-77
2022/05/15 01:48:19;;;;;;;17.02;4.75;;;;;;;13.34;74.33;102162.78;5038187;28;20033;-77
2022/05/15 01:50:44;;;;;;;17.55;5.15;;;;;;;13.33;73.85;102164.53;5026231;28;20069;-77
2022/05/15 01:53:10;;;;;;;15.52;4.93;;;;;;;13.35;73.95;102164.47;5019162;28;20042;-77
2022/05/15 01:55:35;;;;;;;14.75;4.20;;;;;;;13.37;73.78;102160.03;5017837;28;20365;-77
2022/05/15 01:58:01;;;;;;;18.85;5.32;;;;;;;13.35;74.02;102154.84;5016528;28;20257;-77
2022/05/15 02:00:27;;;;;;;17.42;5.00;;;;;;;13.38;73.41;102159.13;5017974;28;20290;-76
2022/05/15 02:02:53;;;;;;;14.65;4.22;;;;;;;13.38;73.56;102162.63;5018141;28;20092;-77
2022/05/15 02:05:20;;;;;;;13.15;4.25;;;;;;;13.40;73.14;102159.94;5018528;28;20076;-77
2022/05/15 02:07:47;;;;;;;18.42;4.85;;;;;;;13.41;72.96;102162.53;5022263;28;20164;-77
2022/05/15 02:10:13;;;;;;;16.83;4.18;;;;;;;13.42;72.77;102166.00;5018045;28;20087;-77
2022/05/15 02:12:38;;;;;;;12.63;4.15;;;;;;;13.42;72.66;102166.00;5016403;28;20061;-77
2022/05/15 02:15:05;;;;;;;12.63;4.43;;;;;;;13.42;72.85;102160.75;5017931;28;20044;-77
2022/05/15 02:17:31;;;;;;;11.20;4.30;;;;;;;13.42;72.56;102166.00;5017825;28;20033;-77
2022/05/15 02:19:57;;;;;;;13.00;4.57;;;;;;;13.40;72.36;102154.69;5017971;28;20034;-77
2022/05/15 02:22:22;;;;;;;16.98;5.00;;;;;;;13.40;72.30;102155.53;5017661;28;20365;-77
2022/05/15 02:24:48;;;;;;;9.98;4.13;;;;;;;13.38;72.47;102149.47;5016316;28;20120;-77
2022/05/15 02:27:13;;;;;;;13.80;4.80;;;;;;;13.35;72.51;102153.97;5017690;28;20367;-77
2022/05/15 02:29:39;;;;;;;9.85;3.97;;;;;;;13.34;72.97;102155.72;5015820;28;20030;-77
2022/05/15 02:32:04;;;;;;;15.20;5.18;;;;;;;13.33;72.91;102158.41;5018074;28;20133;-77
2022/05/15 02:34:30;;;;;;;19.73;4.45;;;;;;;13.30;72.93;102153.19;5017732;28;20068;-77
2022/05/15 02:36:56;;;;;;;16.52;4.53;;;;;;;13.29;72.74;102154.97;5017763;28;20337;-77
2022/05/15 02:39:21;;;;;;;12.10;4.82;;;;;;;13.28;72.82;102155.03;5017778;28;20342;-77
2022/05/15 02:41:46;;;;;;;13.82;3.88;;;;;;;13.28;72.57;102153.28;5016278;28;20029;-77
2022/05/15 02:44:12;;;;;;;12.25;4.15;;;;;;;13.28;72.81;102153.28;5016631;28;20054;-77
2022/05/15 02:46:37;;;;;;;11.45;4.47;;;;;;;13.27;72.43;102148.91;5017491;28;20025;-77
2022/05/15 02:51:47;;;;;;;16.20;4.00;;;;;;;13.26;72.46;102149.81;5019349;28;20084;-77
2022/05/15 02:54:13;;;;;;;15.77;4.45;;;;;;;13.24;72.16;102146.34;5025481;28;20053;-77
2022/05/15 02:56:38;;;;;;;14.30;4.32;;;;;;;13.22;72.19;102146.44;5016558;28;20048;-77
2022/05/15 02:59:05;;;;;;;11.48;4.50;;;;;;;13.21;72.62;102144.69;5017982;28;20038;-74
2022/05/15 03:01:31;;;;;;;13.68;4.57;;;;;;;13.20;72.47;102140.34;5008709;28;20353;-74
2022/05/15 03:03:56;;;;;;;14.75;4.32;;;;;;;13.18;72.21;102147.41;4997792;28;20105;-74
2022/05/15 03:06:22;;;;;;;11.27;4.18;;;;;;;13.17;72.16;102142.19;5005792;28;20064;-74
2022/05/15 03:08:49;;;;;;;12.77;3.95;;;;;;;13.16;72.19;102137.88;5036407;28;20029;-74
2022/05/15 03:11:16;;;;;;;8.00;4.00;;;;;;;13.14;72.41;102135.28;5016966;28;20152;-74
2022/05/15 03:13:42;;;;;;;20.42;4.95;;;;;;;13.13;72.62;102128.28;5015265;28;20097;-74
2022/05/15 03:16:09;;;;;;;10.43;4.10;;;;;;;13.12;72.35;102126.56;5016237;28;20061;-74
2022/05/15 03:18:40;;;;;;;11.43;4.20;;;;;;;13.10;72.64;102122.25;5020936;28;20221;-74
2022/05/15 03:21:05;;;;;;;13.43;4.18;;;;;;;13.09;72.48;102125.81;5036832;28;20045;-74
2022/05/15 03:23:31;;;;;;;14.48;4.53;;;;;;;13.08;72.68;102127.59;5036263;28;20040;-74
2022/05/15 03:25:56;;;;;;;14.02;4.10;;;;;;;13.07;72.81;102133.75;5025217;28;20041;-74
2022/05/15 03:28:22;;;;;;;14.82;5.13;;;;;;;13.04;72.85;102123.31;5016353;28;20216;-74
2022/05/15 03:30:47;;;;;;;19.88;4.90;;;;;;;13.00;73.09;102125.16;5016440;28;20353;-74
2022/05/15 03:33:13;;;;;;;14.48;4.47;;;;;;;12.98;72.92;102113.84;5016443;28;20044;-74
2022/05/15 03:35:39;;;;;;;10.38;4.38;;;;;;;12.98;72.92;102115.63;5016146;28;20050;-74
2022/05/15 03:38:06;;;;;;;12.85;4.25;;;;;;;12.97;73.08;102122.66;5014905;28;20034;-74
2022/05/15 03:40:33;;;;;;;24.45;5.38;;;;;;;12.92;73.02;102123.69;4994989;28;20081;-74
2022/05/15 03:42:58;;;;;;;15.32;4.65;;;;;;;12.89;73.10;102115.91;4998655;28;20312;-74
2022/05/15 03:45:24;;;;;;;12.00;4.00;;;;;;;12.87;73.22;102114.16;5017046;28;20346;-74
2022/05/15 03:47:52;;;;;;;15.45;4.40;;;;;;;12.87;73.44;102118.56;5017208;28;20038;-74
2022/05/15 03:50:20;;;;;;;15.38;4.72;;;;;;;12.85;73.41;102118.59;5018313;28;20041;-74
2022/05/15 03:52:45;;;;;;;10.82;4.10;;;;;;;12.84;73.51;102118.66;5018911;28;20084;-74
2022/05/15 03:55:12;;;;;;;18.83;5.28;;;;;;;12.79;73.42;102116.16;5031178;28;20215;-74
2022/05/15 03:57:38;;;;;;;14.40;4.75;;;;;;;12.78;73.54;102116.22;5016730;28;20068;-74
2022/05/15 04:00:08;;;;;;;10.07;4.40;;;;;;;12.75;73.75;102117.19;5017382;28;20048;-74
2022/05/15 04:02:34;;;;;;;15.30;4.63;;;;;;;12.73;73.71;102118.09;5018187;28;20359;-74
2022/05/15 04:04:59;;;;;;;11.80;4.80;;;;;;;12.73;73.84;102120.72;5018798;28;20054;-74
2022/05/15 04:07:24;;;;;;;16.73;4.53;;;;;;;12.72;73.52;102114.63;5018103;28;20066;-74
2022/05/15 04:09:50;;;;;;;16.55;5.13;;;;;;;12.73;73.82;102116.31;5017891;28;20026;-74
2022/05/15 04:12:16;;;;;;;10.43;4.55;;;;;;;12.73;73.29;102123.38;5017803;28;20342;-74
2022/05/15 04:14:42;;;;;;;12.70;4.53;;;;;;;12.74;73.71;102122.47;5017619;28;20045;-74
2022/05/15 04:17:08;;;;;;;12.93;4.30;;;;;;;12.73;73.36;102112.84;5036748;28;20242;-74
2022/05/15 04:19:35;;;;;;;13.57;4.00;;;;;;;12.73;73.29;102110.22;5028373;28;20041;-74
2022/05/15 04:22:03;;;;;;;11.43;3.65;;;;;;;12.73;73.28;102115.47;5018305;28;20041;-74
2022/05/15 04:24:29;;;;;;;16.13;4.88;;;;;;;12.72;73.38;102121.66;5017983;28;20207;-74
2022/05/15 04:26:54;;;;;;;16.88;4.70;;;;;;;12.71;72.98;102114.66;5017375;28;20069;-74
2022/05/15 04:29:20;;;;;;;13.90;4.65;;;;;;;12.70;72.94;102120.81;5017654;28;20049;-74
2022/05/15 04:31:46;;;;;;;11.80;4.22;;;;;;;12.68;73.05;102124.38;5017452;28;20287;-74
2022/05/15 04:34:12;;;;;;;12.27;4.63;;;;;;;12.68;72.96;102126.13;5017823;28;20041;-74
2022/05/15 04:36:38;;;;;;;13.52;4.45;;;;;;;12.67;73.06;102127.03;5032260;28;20042;-73
2022/05/15 04:39:04;;;;;;;10.02;3.85;;;;;;;12.66;73.24;102128.81;5028835;28;20034;-73
2022/05/15 04:41:30;;;;;;;36.95;4.85;;;;;;;12.63;73.51;102123.63;5016894;28;20029;-73
2022/05/15 04:43:56;;;;;;;15.15;4.28;;;;;;;12.62;73.81;102115.78;5018364;28;20244;-73
2022/05/15 04:46:22;;;;;;;16.10;4.40;;;;;;;12.60;73.70;102121.09;5017515;28;20036;-73
2022/05/15 04:48:48;;;;;;;18.55;5.53;;;;;;;12.52;74.57;102117.81;5017650;28;20037;-73
2022/05/15 04:51:13;;;;;;;20.38;5.57;;;;;;;12.47;74.76;102119.72;5017336;28;20105;-73
2022/05/15 04:53:39;;;;;;;11.50;4.93;;;;;;;12.45;75.16;102113.66;5017249;28;20041;-73
2022/05/15 04:56:04;;;;;;;19.15;4.85;;;;;;;12.43;75.27;102115.47;5020017;28;20104;-73
2022/05/15 04:58:30;;;;;;;17.30;4.85;;;;;;;12.39;75.02;102116.47;5018599;28;20049;-73
2022/05/15 05:00:55;;;;;;;20.20;5.35;;;;;;;12.33;75.50;102116.63;5025298;28;20364;-73
2022/05/15 05:03:20;;;;;;;19.15;4.93;;;;;;;12.28;76.14;102109.72;5022424;28;20058;-73
2022/05/15 05:05:46;;;;;;;12.95;4.28;;;;;;;12.32;75.74;102113.13;5011767;28;20264;-73
2022/05/15 05:08:12;;;;;;;17.90;4.72;;;;;;;12.33;75.63;102112.22;4998043;28;20054;-73
2022/05/15 05:10:39;;;;;;;17.60;5.03;;;;;;;12.26;76.37;102113.28;5017406;28;20046;-73
2022/05/15 05:13:04;;;;;;;20.60;5.03;;;;;;;12.20;76.79;102113.47;5016379;28;20034;-73
2022/05/15 05:15:30;;;;;;;23.02;5.28;;;;;;;12.17;76.83;102105.66;5016546;28;20048;-74
2022/05/15 05:17:56;;;;;;;22.60;5.50;;;;;;;12.15;77.03;102112.72;5010466;28;20064;-74
2022/05/15 05:20:22;;;;;;;23.23;6.05;;;;;;;12.12;76.98;102111.06;4987857;28;20026;-74
2022/05/15 05:22:47;;;;;;;18.10;5.22;;;;;;;12.07;77.33;102120.81;5012838;28;20041;-74
2022/05/15 05:25:13;;;;;;;19.88;5.28;;;;;;;12.01;77.55;102116.59;5014716;28;20362;-74
2022/05/15 05:27:41;;;;;;;21.98;5.38;;;;;;;12.03;77.69;102116.56;5014992;28;20037;-74
2022/05/15 05:30:09;;;;;;;13.57;5.33;;;;;;;12.01;77.57;102108.72;5018591;28;20037;-74
2022/05/15 05:32:34;;;;;;;26.30;5.38;;;;;;;12.00;77.63;102109.59;5013243;28;20034;-74
2022/05/15 05:35:00;;;;;;;29.50;5.80;;;;;;;12.01;78.07;102113.09;5013160;28;20068;-74
2022/05/15 05:37:25;;;;;;;24.15;5.40;;;;;;;12.00;78.12;102111.38;5015436;28;20140;-74
2022/05/15 05:39:51;;;;;;;25.08;5.25;;;;;;;12.00;77.80;102114.00;5009968;28;20038;-74
2022/05/15 05:42:16;;;;;;;24.50;5.63;;;;;;;12.02;77.95;102112.19;5015150;28;20226;-74
2022/05/15 05:44:41;;;;;;;17.65;5.13;;;;;;;12.04;77.91;102111.25;5010898;28;20025;-74
2022/05/15 05:47:07;;;;;;;23.88;5.40;;;;;;;12.08;78.35;102118.16;5013781;28;20101;-74
2022/05/15 05:49:33;;;;;;;23.38;6.10;;;;;;;12.09;78.01;102122.47;5013955;28;20033;-74
2022/05/15 05:51:58;;;;;;;23.25;6.20;;;;;;;12.12;78.01;102120.69;5015106;28;20036;-74
2022/05/15 05:54:23;;;;;;;25.95;5.72;;;;;;;12.15;78.05;102124.09;5010968;28;20113;-74
2022/05/15 05:56:49;;;;;;;22.70;5.75;;;;;;;12.21;78.03;102125.72;5011190;28;20088;-74
2022/05/15 05:59:14;;;;;;;20.13;5.32;;;;;;;12.25;78.05;102117.69;5013905;28;20287;-74
2022/05/15 06:01:39;;;;;;;25.38;5.78;;;;;;;12.28;77.87;102114.97;5012904;28;20038;-74
2022/05/15 06:06:49;;;;;;;26.55;5.90;;;;;;;12.36;77.04;102127.91;5018970;28;20080;-74
2022/05/15 06:09:14;;;;;;;21.45;5.82;;;;;;;12.40;77.30;102132.16;5012070;28;20289;-74
2022/05/15 06:11:39;;;;;;;30.80;5.80;;;;;;;12.45;77.14;102126.78;5014353;28;20204;-74
2022/05/15 06:14:05;;;;;;;30.23;5.88;;;;;;;12.50;76.85;102122.28;5015192;28;20144;-74
2022/05/15 06:16:33;;;;;;;33.08;6.00;;;;;;;12.54;77.05;102130.94;5015144;28;20315;-74
2022/05/15 06:18:59;;;;;;;22.42;5.55;;;;;;;12.58;76.99;102129.94;5013165;28;20064;-74
2022/05/15 06:21:25;;;;;;;21.95;5.68;;;;;;;12.65;76.74;102132.34;5012013;28;20030;-74
2022/05/15 06:23:50;;;;;;;19.83;5.63;;;;;;;12.67;76.48;102133.16;5014409;28;20037;-74
2022/05/15 06:26:16;;;;;;;24.13;6.75;;;;;;;12.73;76.53;102136.50;5014003;28;20044;-74
2022/05/15 06:28:41;;;;;;;23.63;5.90;;;;;;;12.76;76.19;102134.66;5014833;28;20060;-74
2022/05/15 06:31:07;;;;;;;21.70;5.78;;;;;;;12.79;76.18;102124.06;5013012;28;20203;-74
2022/05/15 06:33:32;;;;;;;25.88;5.47;;;;;;;12.83;75.79;102125.69;5007019;28;20349;-74
2022/05/15 06:35:58;;;;;;;29.52;6.55;;;;;;;12.85;75.51;102121.22;5014656;28;20060;-74
2022/05/15 06:38:24;;;;;;;22.33;5.00;;;;;;;12.92;75.60;102121.91;5013342;28;20341;-74
2022/05/15 06:40:49;;;;;;;19.15;6.05;;;;;;;12.96;75.90;102128.81;5012968;28;20049;-74
2022/05/15 06:43:15;;;;;;;22.75;5.53;;;;;;;13.00;75.83;102121.69;5015491;28;20288;-74
2022/05/15 06:45:41;;;;;;;34.90;6.15;;;;;;;13.05;75.69;102120.63;5011156;28;20056;-74
2022/05/15 06:48:06;;;;;;;23.42;6.40;;;;;;;13.10;75.68;102127.50;5013776;28;20064;-74
2022/05/15 06:50:32;;;;;;;22.98;5.65;;;;;;;13.15;75.44;102126.50;5011673;28;20045;-74
2022/05/15 06:52:57;;;;;;;18.45;5.68;;;;;;;13.21;75.28;102128.06;5015096;28;20053;-74
2022/05/15 06:55:23;;;;;;;22.33;5.72;;;;;;;13.27;75.27;102124.38;5012244;28;20057;-74
2022/05/15 06:57:50;;;;;;;23.45;6.70;;;;;;;13.34;75.25;102128.56;5012432;28;20041;-74
2022/05/15 07:00:28;;;;;;;24.38;6.63;;;;;;;13.37;74.96;102120.56;5013470;28;20342;-74
2022/05/15 07:02:53;;;;;;;18.20;4.97;;;;;;;13.40;74.62;102117.84;5010054;28;20025;-74
2022/05/15 07:05:25;;;;;;;18.23;5.70;;;;;;;13.46;74.76;102120.25;5011857;28;20044;-74
2022/05/15 07:07:52;;;;;;;20.30;5.90;;;;;;;13.51;74.90;102117.50;5013334;28;20100;-74
2022/05/15 07:10:18;;;;;;;24.08;6.72;;;;;;;13.54;74.82;102123.50;5012427;28;20049;-74
2022/05/15 07:12:44;;;;;;;21.20;6.15;;;;;;;13.60;74.36;102120.66;5010453;28;20125;-74
2022/05/15 07:15:09;;;;;;;17.13;5.75;;;;;;;13.66;74.36;102117.00;5014953;28;20352;-74
2022/05/15 07:17:35;;;;;;;22.38;5.85;;;;;;;13.70;74.53;102121.25;5017271;28;20049;-74
2022/05/15 07:20:00;;;;;;;23.88;6.80;;;;;;;13.77;74.24;102116.63;5017784;28;20329;-74
2022/05/15 07:22:26;;;;;;;24.13;6.57;;;;;;;13.82;74.52;102112.06;5014640;28;20037;-74
2022/05/15 07:24:51;;;;;;;21.05;6.63;;;;;;;13.89;74.14;102120.63;5014093;28;20038;-74
2022/05/15 07:27:17;;;;;;;17.70;6.10;;;;;;;13.95;74.21;102131.81;5016858;28;20045;-74
2022/05/15 07:29:43;;;;;;;22.63;6.78;;;;;;;14.00;74.46;102126.38;5014778;28;20022;-74
2022/05/15 07:32:09;;;;;;;25.40;6.38;;;;;;;14.06;74.12;102125.28;5017851;28;20052;-74
2022/05/15 07:34:38;;;;;;;20.98;6.50;;;;;;;14.17;74.19;102129.28;5018185;28;20033;-74
2022/05/15 07:37:03;;;;;;;29.55;6.75;;;;;;;14.22;74.13;102115.94;5022654;28;20115;-75
2022/05/15 07:39:29;;;;;;;21.17;6.40;;;;;;;14.28;73.87;102120.13;5015417;28;20030;-75
2022/05/15 07:41:55;;;;;;;19.70;6.65;;;;;;;14.37;73.99;102117.16;5017315;28;20057;-75
2022/05/15 07:44:21;;;;;;;24.58;7.35;;;;;;;14.40;74.28;102112.63;5014331;28;20030;-74
2022/05/15 07:46:46;;;;;;;18.88;6.28;;;;;;;14.49;73.92;102118.50;5019240;28;20037;-74
2022/05/15 07:49:13;;;;;;;22.65;7.00;;;;;;;14.57;73.62;102119.06;5018362;28;20064;-74
2022/05/15 07:51:44;;;;;;;20.98;6.43;;;;;;;14.67;73.84;102115.22;5017590;28;20123;-74
2022/05/15 07:54:10;;;;;;;28.08;6.80;;;;;;;14.74;73.57;102107.94;5021637;28;20037;-75
2022/05/15 07:56:35;;;;;;;20.83;6.95;;;;;;;14.81;73.52;102113.81;5014436;28;20050;-75
2022/05/15 07:59:00;;;;;;;25.13;6.88;;;;;;;14.87;73.03;102117.09;5019121;28;20033;-75
2022/05/15 08:01:26;;;;;;;22.85;6.53;;;;;;;14.99;73.12;102113.13;5012621;28;20100;-75
2022/05/15 08:03:51;;;;;;;18.13;6.68;;;;;;;15.08;73.00;102103.97;5017011;28;20105;-74
2022/05/15 08:09:03;;;;;;;24.20;7.18;;;;;;;15.27;72.61;102099.69;5017993;28;20413;-74
2022/05/15 08:11:28;;;;;;;30.67;7.65;;;;;;;15.41;71.78;102092.97;5016181;28;20033;-75
2022/05/15 08:14:02;;;;;;;29.50;7.75;;;;;;;15.50;71.63;102088.19;5017272;28;20038;-75
2022/05/15 08:16:28;;;;;;;24.13;6.85;;;;;;;15.60;71.58;102082.53;5013204;28;20242;-75
2022/05/15 08:24:22;;;;;;;18.90;7.28;;;;;;;15.85;70.51;102075.31;5014312;28;20372;-75
2022/05/15 08:26:48;;;;;;;23.90;8.32;;;;;;;15.96;70.46;102079.28;5017546;28;20046;-75
2022/05/15 08:29:14;;;;;;;25.88;7.43;;;;;;;16.04;70.18;102070.06;5011575;28;20046;-75
2022/05/15 08:31:40;;;;;;;17.23;7.32;;;;;;;16.12;69.95;102070.59;5006301;28;20352;-75
2022/05/15 08:34:06;;;;;;;31.83;8.77;;;;;;;16.22;69.61;102070.19;5013694;28;20038;-75
2022/05/15 08:36:32;;;;;;;23.15;7.60;;;;;;;16.27;69.60;102060.28;5017401;28;20270;-74
2022/05/15 08:38:58;;;;;;;20.98;7.60;;;;;;;16.40;68.95;102065.84;5002424;28;20034;-75
2022/05/15 08:41:33;;;;;;;22.80;7.28;;;;;;;16.46;68.82;102062.91;5013214;28;20104;-75
2022/05/15 08:44:22;;;;;;;22.38;8.10;;;;;;;16.55;68.66;102053.72;5010212;28;20038;-75
2022/05/15 08:46:57;;;;;;;20.50;7.22;;;;;;;16.64;68.63;102064.69;5016276;28;20038;-75
2022/05/15 08:49:29;;;;;;;19.55;7.40;;;;;;;16.73;68.12;102068.72;5016180;28;20101;-75
2022/05/15 08:52:17;;;;;;;18.08;7.88;;;;;;;16.77;68.37;102070.31;5016553;28;20034;-75
2022/05/15 08:54:55;;;;;;;16.05;7.20;;;;;;;16.88;67.66;102060.09;5014848;28;20038;-75
2022/05/15 08:57:33;;;;;;;25.13;7.63;;;;;;;16.97;67.41;102060.56;5008923;28;20090;-75
2022/05/15 09:00:00;;;;;;;22.60;7.28;;;;;;;17.05;67.49;102061.91;5012666;28;20067;-75
2022/05/15 09:02:25;;;;;;;18.95;7.97;;;;;;;17.15;67.20;102051.72;5018803;28;20085;-75
2022/05/15 09:04:53;;;;;;;21.42;7.47;;;;;;;17.25;66.73;102054.81;5017141;28;20045;-75
2022/05/15 09:07:27;;;;;;;21.27;8.27;;;;;;;17.36;66.35;102047.16;5017401;28;20123;-75
2022/05/15 09:10:14;;;;;;;18.52;7.20;;;;;;;17.43;65.42;102035.34;5019091;28;20034;-75
2022/05/15 09:12:43;;;;;;;21.33;8.43;;;;;;;17.52;65.36;102041.97;5015393;28;20037;-75
2022/05/15 09:15:16;;;;;;;23.60;8.50;;;;;;;17.60;65.76;102038.91;5017575;28;20042;-75
2022/05/15 09:17:58;;;;;;;18.00;7.85;;;;;;;17.68;65.52;102041.16;5014378;28;20053;-74
2022/05/15 09:20:24;;;;;;;19.25;7.18;;;;;;;17.78;64.73;102042.41;5011122;28;20044;-75
2022/05/15 09:23:01;;;;;;;20.77;7.50;;;;;;;17.83;64.18;102041.22;5014993;28;20034;-75
2022/05/15 09:25:35;;;;;;;15.93;7.10;;;;;;;17.88;64.39;102043.66;5015434;28;20601;-75
2022/05/15 09:28:03;;;;;;;16.02;7.75;;;;;;;17.93;64.35;102044.28;5014026;28;20037;-75
2022/05/15 09:30:49;;;;;;;20.87;8.10;;;;;;;18.08;63.93;102047.94;5011898;28;20049;-75
2022/05/15 09:33:26;;;;;;;21.20;7.47;;;;;;;18.15;62.85;102045.78;5020238;28;20041;-75
2022/05/15 09:36:23;;;;;;;21.45;7.65;;;;;;;18.26;62.89;102046.06;5016713;28;20041;-75
2022/05/15 09:39:07;;;;;;;19.45;7.20;;;;;;;18.37;61.76;102041.06;5011312;28;20356;-75
2022/05/15 09:44:29;;;;;;;19.58;7.32;;;;;;;18.52;61.72;102039.34;5014092;28;20052;-75
2022/05/15 09:47:24;;;;;;;19.02;7.00;;;;;;;18.63;60.57;102029.94;5012542;28;20034;-75
2022/05/15 09:49:50;;;;;;;18.40;6.82;;;;;;;18.75;58.89;102031.91;5017418;28;20257;-75
2022/05/15 09:52:21;;;;;;;13.43;6.75;;;;;;;18.86;58.80;102037.47;4994236;28;20040;-75
2022/05/15 09:54:49;;;;;;;10.05;6.18;;;;;;;18.92;58.60;102047.78;5020150;28;20344;-75
2022/05/15 09:57:27;;;;;;;12.23;6.30;;;;;;;18.92;58.99;102041.63;5013029;28;20029;-75
2022/05/15 09:59:56;;;;;;;;;;;;;;;18.96;59.21;102041.34;5012850;28;20513;-75
2022/05/15 10:02:25;;;;;;;11.65;6.05;;;;;;;18.96;59.43;102038.69;5014942;28;19924;-75
2022/05/15 10:04:52;;;;;;;16.70;6.28;;;;;;;18.99;59.11;102034.97;5014409;28;20055;-75
2022/05/15 10:07:44;;;;;;;15.52;6.63;;;;;;;19.08;57.37;102042.44;5014344;28;20042;-75
2022/05/15 10:10:21;;;;;;;14.88;5.95;;;;;;;19.13;57.18;102039.50;5015359;28;20042;-75
2022/05/15 10:12:54;;;;;;;16.30;6.05;;;;;;;19.15;56.80;102030.50;5011443;28;20061;-76
2022/05/15 10:15:21;;;;;;;14.20;5.28;;;;;;;19.17;56.20;102022.44;5016165;28;20041;-75
2022/05/15 10:17:54;;;;;;;19.83;5.57;;;;;;;19.25;55.08;102022.03;5013777;28;20396;-76
2022/05/15 10:20:26;;;;;;;37.08;7.22;;;;;;;19.39;52.95;102022.03;5015379;28;20052;-75
2022/05/15 10:23:06;;;;;;;19.27;5.97;;;;;;;19.53;53.39;102026.53;5012716;28;20353;-75
2022/05/15 10:25:50;;;;;;;12.70;6.07;;;;;;;19.62;52.99;102019.84;5015198;28;20032;-76
2022/05/15 10:28:33;;;;;;;10.88;5.63;;;;;;;19.67;53.54;102015.09;5011496;28;20377;-76
2022/05/15 10:31:04;;;;;;;15.20;6.07;;;;;;;19.70;54.53;102010.44;5011138;28;20037;-75
2022/05/15 10:33:36;;;;;;;15.55;6.15;;;;;;;19.77;53.07;102013.59;5007237;28;20040;-75
2022/05/15 10:36:26;;;;;;;12.15;5.22;;;;;;;19.84;52.62;102006.13;5015538;28;20041;-75
2022/05/15 10:39:14;;;;;;;12.50;5.30;;;;;;;19.94;51.83;102004.63;5012671;28;20026;-75
2022/05/15 10:42:05;;;;;;;14.73;5.60;;;;;;;20.02;51.93;102002.31;5008067;28;20045;-75
2022/05/15 10:44:58;;;;;;;14.93;5.55;;;;;;;20.13;51.25;102004.31;5007178;28;20037;-75
2022/05/15 10:47:31;;;;;;;12.77;5.18;;;;;;;20.10;52.99;102002.72;5015100;28;20222;-74
2022/05/15 10:50:18;;;;;;;18.13;5.20;;;;;;;20.17;53.15;101994.34;5012658;28;20037;-75
2022/05/15 10:59:00;;;;;;;14.18;4.75;;;;;;;20.18;52.93;101985.41;5014095;28;20226;-74
2022/05/15 11:01:41;;;;;;;20.83;6.07;;;;;;;20.33;50.47;101990.59;5015097;28;20025;-73
2022/05/15 11:04:26;;;;;;;24.33;6.53;;;;;;;20.37;50.09;101975.28;5021233;28;20057;-74
2022/05/15 11:07:16;;;;;;;23.17;5.78;;;;;;;20.46;50.38;101981.84;5003217;28;20061;-73
2022/05/15 11:10:13;;;;;;;19.13;5.90;;;;;;;20.55;48.34;101983.91;5020539;28;20513;-74
2022/05/15 11:13:00;;;;;;;12.50;4.97;;;;;;;20.60;48.47;101983.63;5015035;28;20372;-74
2022/05/15 11:15:37;;;;;;;13.85;4.93;;;;;;;20.62;48.56;101976.41;5020648;28;20101;-74
2022/05/15 11:18:45;;;;;;;15.10;5.68;;;;;;;20.61;49.01;101974.69;5025060;28;20033;-73
2022/05/15 11:21:17;;;;;;;8.65;3.90;;;;;;;20.65;49.52;101968.25;5025534;28;20277;-74
2022/05/15 11:24:32;;;;;;;12.32;5.63;;;;;;;20.79;46.41;101972.63;5023856;28;20025;-74
2022/05/15 11:27:11;;;;;;;8.45;4.60;;;;;;;20.81;46.51;101962.72;5017975;28;20046;-73
2022/05/15 11:29:42;;;;;;;16.25;5.18;;;;;;;20.84;46.91;101955.41;5022490;28;20026;-73
2022/05/15 11:32:32;;;;;;;13.50;4.43;;;;;;;20.85;47.42;101958.94;5024016;28;20039;-73
2022/05/15 11:35:22;;;;;;;16.30;4.57;;;;;;;20.90;46.67;101963.00;5024842;28;20034;-73
2022/05/15 11:37:57;;;;;;;12.60;4.40;;;;;;;20.88;46.25;101946.28;5025412;28;20041;-74
2022/05/15 11:40:45;;;;;;;11.48;4.40;;;;;;;20.89;46.53;101933.81;5021169;28;20038;-73
2022/05/15 11:43:26;;;;;;;10.23;4.30;;;;;;;20.99;45.55;101934.03;5024283;28;20068;-74
2022/05/15 11:46:11;;;;;;;11.45;4.72;;;;;;;21.05;45.09;101930.97;5024503;28;20045;-74
2022/05/15 11:48:39;;;;;;;16.67;4.38;;;;;;;21.07;44.94;101924.56;5026507;28;20025;-73
2022/05/15 11:51:13;;;;;;;16.95;4.63;;;;;;;21.11;45.54;101922.56;5029302;28;20120;-74
2022/05/15 11:54:00;;;;;;;7.53;4.07;;;;;;;21.13;46.00;101923.28;5021603;28;20267;-73